Time;durP1;ratioP1;P1;durP2;ratioP2;P2;SDS_P1;SDS_P2;PMS_P1;PMS_P2;Temp;Humidity;BMP_temperature;BMP_pressure;BME280_temperature;BME280_humidity;BME280_pressure;Samples;Min_cycle;Max_cycle;Signal;HPM_P1;HPM_P2
2023/10/27 00:00:22;;;;;;;2.20;0.57;;;;;;;-145.69;68.55;52262.19;5096049;28;20603;-84
2023/10/27 00:02:48;;;;;;;3.13;0.60;;;;;;;-145.69;68.69;52266.16;5095870;28;20263;-83
2023/10/27 00:05:15;;;;;;;1.90;0.77;;;;;;;-145.69;68.07;52242.38;5095713;28;20202;-84
2023/10/27 00:07:43;;;;;;;2.77;0.63;;;;;;;-145.69;68.55;52246.34;5086907;28;20539;-84
2023/10/27 00:10:09;;;;;;;2.83;0.70;;;;;;;-145.69;68.58;52274.06;5075351;28;20206;-83
2023/10/27 00:12:36;;;;;;;1.50;0.63;;;;;;;-145.69;68.15;52276.06;5075226;28;20209;-84
2023/10/27 00:15:03;;;;;;;0.67;0.50;;;;;;;-145.69;68.32;52236.44;5075144;28;20210;-84
2023/10/27 00:17:30;;;;;;;2.17;0.70;;;;;;;-145.69;67.89;52285.97;5093901;28;20256;-83
2023/10/27 00:19:58;;;;;;;0.80;0.60;;;;;;;-145.69;68.24;52250.31;5075009;28;20223;-83
2023/10/27 00:22:25;;;;;;;1.07;0.70;;;;;;;-145.69;68.36;52258.22;5074989;28;20206;-83
2023/10/27 00:24:55;;;;;;;1.25;0.70;;;;;;;-145.69;70.04;52256.25;5073896;28;20499;-83
2023/10/27 00:27:21;;;;;;;2.33;0.77;;;;;;;-145.69;68.88;52246.34;5074989;28;20252;-84
2023/10/27 00:29:48;;;;;;;2.33;0.70;;;;;;;-145.69;68.10;52260.22;5074993;28;20203;-84
2023/10/27 00:32:17;;;;;;;2.07;0.70;;;;;;;-145.69;68.15;52224.56;5074987;28;20199;-83
2023/10/27 00:34:43;;;;;;;0.80;0.60;;;;;;;-145.69;68.44;52268.13;5075019;28;20207;-84
2023/10/27 00:37:12;;;;;;;2.57;0.80;;;;;;;-145.69;68.61;52272.09;5076039;28;20199;-84
2023/10/27 00:39:40;;;;;;;3.23;0.77;;;;;;;-145.69;68.45;52232.50;5095829;28;20258;-83
2023/10/27 00:42:08;;;;;;;0.67;0.57;;;;;;;-145.69;68.50;52250.31;5095170;28;20210;-82
2023/10/27 00:44:35;;;;;;;1.00;0.60;;;;;;;-145.69;68.40;52246.34;5094829;28;20246;-83
2023/10/27 00:47:03;;;;;;;0.67;0.50;;;;;;;-145.69;68.45;52244.38;5094781;28;20201;-83
2023/10/27 00:49:32;;;;;;;2.87;0.77;;;;;;;-145.69;68.05;52246.34;5077950;28;20554;-83
2023/10/27 00:52:01;;;;;;;0.87;0.50;;;;;;;-145.69;68.27;52254.28;5074703;28;20205;-83
2023/10/27 00:54:29;;;;;;;1.43;0.60;;;;;;;-145.69;68.32;52248.34;5074687;28;20297;-83
2023/10/27 00:56:59;;;;;;;0.87;0.67;;;;;;;-145.69;68.20;52270.13;5074517;28;20573;-83
2023/10/27 00:59:27;;;;;;;0.60;0.60;;;;;;;-145.69;68.29;52280.00;5074351;28;20228;-83
2023/10/27 01:01:54;;;;;;;2.40;0.63;;;;;;;-145.69;68.37;52270.13;5074033;28;20535;-83
2023/10/27 01:04:21;;;;;;;2.60;0.67;;;;;;;-145.69;68.10;52266.16;5069523;28;20205;-83
2023/10/27 01:06:52;;;;;;;2.30;0.70;;;;;;;-145.69;68.04;52293.88;5073649;28;20202;-82
2023/10/27 01:09:18;;;;;;;1.47;0.70;;;;;;;-145.69;68.07;52256.25;5085310;28;20205;-83
2023/10/27 01:11:47;;;;;;;2.17;0.60;;;;;;;-145.69;68.07;52222.59;5074255;28;20199;-83
2023/10/27 01:14:13;;;;;;;1.13;0.50;;;;;;;-145.69;67.92;52254.28;5073977;28;20210;-83
2023/10/27 01:16:45;;;;;;;1.33;0.63;;;;;;;-145.69;67.93;52236.44;5074191;28;20205;-83
2023/10/27 01:19:12;;;;;;;1.07;0.50;;;;;;;-145.69;67.98;52224.56;5091287;28;20257;-82
2023/10/27 01:21:39;;;;;;;1.70;0.60;;;;;;;-145.69;67.51;52250.31;5094313;28;20218;-83
2023/10/27 01:24:17;;;;;;;3.03;0.90;;;;;;;-145.69;67.56;52264.16;5094093;28;20194;-83
2023/10/27 01:26:43;;;;;;;1.17;0.77;;;;;;;-145.69;67.48;52258.22;5093621;28;20624;-84
2023/10/27 01:29:11;;;;;;;1.70;0.60;;;;;;;-145.69;67.67;52246.34;5093994;28;20866;-83
2023/10/27 01:31:37;;;;;;;3.10;0.70;;;;;;;-145.69;67.72;52266.16;5092465;28;20194;-83
2023/10/27 01:34:04;;;;;;;2.33;0.60;;;;;;;-145.69;68.37;52258.22;5053857;28;20207;-84
2023/10/27 01:36:30;;;;;;;3.57;0.63;;;;;;;-145.69;68.24;52289.91;5053875;28;20210;-84
2023/10/27 01:38:57;;;;;;;2.90;0.60;;;;;;;-145.69;68.57;52238.44;5053807;28;20215;-83
2023/10/27 01:41:27;;;;;;;2.53;0.70;;;;;;;-145.69;68.79;52254.28;5053701;28;20651;-84
2023/10/27 01:43:53;;;;;;;3.37;0.80;;;;;;;-145.69;68.47;52248.34;5053395;28;20292;-84
2023/10/27 01:46:20;;;;;;;1.13;0.60;;;;;;;-145.69;68.70;52240.41;5053316;28;20203;-84
2023/10/27 01:48:51;;;;;;;1.03;0.60;;;;;;;-145.69;68.48;52258.22;5070894;28;20668;-84
2023/10/27 01:51:17;;;;;;;2.10;0.80;;;;;;;-145.69;68.70;52272.09;5073400;28;20207;-83
2023/10/27 01:53:46;;;;;;;0.50;0.50;;;;;;;-145.69;68.58;52274.06;5073437;28;20190;-83
2023/10/27 01:56:13;;;;;;;2.50;0.70;;;;;;;-145.69;68.27;52289.91;5073443;28;20198;-84
2023/10/27 01:58:44;;;;;;;1.03;0.80;;;;;;;-145.69;68.79;52262.19;5073831;28;20256;-84
2023/10/27 02:01:10;;;;;;;2.30;0.70;;;;;;;-145.69;68.57;52270.13;5073741;28;20208;-84
2023/10/27 02:03:37;;;;;;;1.57;0.80;;;;;;;-145.69;68.48;52236.44;5073394;28;20290;-84
2023/10/27 02:06:06;;;;;;;1.80;0.80;;;;;;;-145.69;68.29;52272.09;5073125;28;20199;-83
2023/10/27 02:08:35;;;;;;;0.60;0.60;;;;;;;-145.69;68.65;52258.22;5073291;28;20564;-84
2023/10/27 02:11:04;;;;;;;0.67;0.67;;;;;;;-145.69;68.56;52270.13;5073288;28;20206;-83
2023/10/27 02:13:31;;;;;;;4.50;0.70;;;;;;;-145.69;68.69;52287.94;5073226;28;20214;-84
2023/10/27 02:16:01;;;;;;;0.60;0.60;;;;;;;-145.69;68.62;52234.47;5073381;28;20205;-84
2023/10/27 02:18:27;;;;;;;1.43;0.60;;;;;;;-145.69;68.67;52250.31;5084998;28;20186;-84
2023/10/27 02:20:55;;;;;;;1.93;0.80;;;;;;;-145.69;69.06;52266.16;5076373;28;20230;-85
2023/10/27 02:23:21;;;;;;;2.07;0.53;;;;;;;-145.69;68.94;52272.09;5073193;28;20203;-84
2023/10/27 02:25:50;;;;;;;3.30;0.70;;;;;;;-145.69;68.38;52272.09;5073019;28;20221;-84
2023/10/27 02:28:16;;;;;;;1.27;0.50;;;;;;;-145.69;68.33;52287.94;5073253;28;20205;-85
2023/10/27 02:30:45;;;;;;;0.90;0.60;;;;;;;-145.69;68.35;52287.94;5073114;28;20261;-84
2023/10/27 02:33:13;;;;;;;2.90;1.10;;;;;;;-145.69;68.40;52258.22;5072646;28;20222;-84
2023/10/27 02:35:40;;;;;;;0.60;0.60;;;;;;;-145.69;68.14;52238.44;5072849;28;20198;-84
2023/10/27 02:38:06;;;;;;;3.17;0.70;;;;;;;-145.69;68.34;52258.22;5074232;28;20207;-84
2023/10/27 02:40:35;;;;;;;4.33;1.10;;;;;;;-145.69;68.52;52242.38;5086702;28;20253;-84
2023/10/27 02:43:03;;;;;;;1.63;0.90;;;;;;;-145.69;68.27;52274.06;5097041;28;20692;-85
2023/10/27 02:45:30;;;;;;;1.33;0.70;;;;;;;-145.69;68.47;52291.91;5097288;28;20202;-84
2023/10/27 02:47:58;;;;;;;2.10;0.60;;;;;;;-145.69;68.30;52238.44;5096336;28;20234;-84
2023/10/27 02:50:26;;;;;;;0.83;0.50;;;;;;;-145.69;67.95;52246.34;5097246;28;20205;-84
2023/10/27 02:52:53;;;;;;;1.70;0.60;;;;;;;-145.69;68.29;52274.06;5096730;28;20381;-83
2023/10/27 02:55:25;;;;;;;1.13;0.50;;;;;;;-145.69;68.12;52283.97;5077579;28;20199;-83
2023/10/27 02:57:51;;;;;;;5.10;0.67;;;;;;;-145.69;68.23;52282.00;5076757;28;20206;-84
2023/10/27 03:00:19;;;;;;;2.80;0.57;;;;;;;-145.69;67.60;52232.50;5076395;28;20237;-84
2023/10/27 03:02:52;;;;;;;0.73;0.47;;;;;;;-145.69;68.01;52305.75;5076042;28;20601;-83
2023/10/27 03:05:22;;;;;;;1.40;0.60;;;;;;;-145.69;67.95;52260.22;5076518;28;20214;-83
2023/10/27 03:07:53;;;;;;;1.00;0.60;;;;;;;-145.69;68.00;52246.34;5076435;28;20198;-84
2023/10/27 03:10:20;;;;;;;1.30;0.60;;;;;;;-145.69;68.01;52274.06;5076397;28;20249;-83
2023/10/27 03:12:46;;;;;;;1.33;0.60;;;;;;;-145.69;67.32;52270.13;5076356;28;20260;-83
2023/10/27 03:15:15;;;;;;;0.50;0.50;;;;;;;-145.69;67.50;52270.13;5076341;28;20232;-84
2023/10/27 03:17:41;;;;;;;1.33;0.60;;;;;;;-145.69;67.67;52256.25;5081457;28;20194;-83
2023/10/27 03:20:12;;;;;;;6.63;0.80;;;;;;;-145.69;67.49;52248.34;5096704;28;20226;-83
2023/10/27 03:22:40;;;;;;;0.53;0.50;;;;;;;-145.69;68.00;52254.28;5096597;28;20244;-83
2023/10/27 03:25:12;;;;;;;2.60;0.80;;;;;;;-145.69;67.09;52270.13;5096313;28;20664;-83
2023/10/27 03:27:38;;;;;;;1.87;0.73;;;;;;;-145.69;67.63;52297.84;5096440;28;20202;-83
2023/10/27 03:30:09;;;;;;;0.80;0.60;;;;;;;-145.69;68.25;52270.13;5096589;28;20198;-83
2023/10/27 03:32:35;;;;;;;1.63;0.80;;;;;;;-145.69;68.00;52266.16;5080672;28;20277;-84
2023/10/27 03:35:02;;;;;;;2.27;0.60;;;;;;;-145.69;68.12;52274.06;5076102;28;20195;-84
2023/10/27 03:37:28;;;;;;;0.60;0.60;;;;;;;-145.69;67.80;52280.00;5079247;28;20202;-83
2023/10/27 03:39:55;;;;;;;2.23;0.60;;;;;;;-145.69;67.77;52278.03;5096099;28;20304;-83
2023/10/27 03:42:25;;;;;;;3.83;0.70;;;;;;;-145.69;67.77;52252.28;5081807;28;20222;-84
2023/10/27 03:44:52;;;;;;;4.80;0.80;;;;;;;-145.69;68.18;52262.19;5076110;28;20195;-84
2023/10/27 03:47:21;;;;;;;2.67;0.67;;;;;;;-145.69;67.96;52252.28;5095897;28;20236;-83
2023/10/27 03:49:47;;;;;;;2.17;1.00;;;;;;;-145.69;67.32;52317.66;5093947;28;20229;-83
2023/10/27 03:52:16;;;;;;;1.03;0.60;;;;;;;-145.69;66.93;52287.94;5096318;28;20208;-83
2023/10/27 03:54:42;;;;;;;2.10;0.60;;;;;;;-145.69;67.64;52236.44;5096222;28;20198;-84
2023/10/27 03:57:13;;;;;;;1.10;0.70;;;;;;;-145.69;68.10;52262.19;5097732;28;20202;-83
2023/10/27 03:59:41;;;;;;;5.73;0.80;;;;;;;-145.69;67.97;52240.41;5097272;28;20226;-83
2023/10/27 04:02:08;;;;;;;1.30;0.87;;;;;;;-145.69;67.57;52258.22;5088291;28;20201;-83
2023/10/27 04:04:39;;;;;;;1.55;0.70;;;;;;;-145.69;68.99;52270.13;5079610;28;20527;-83
2023/10/27 04:07:05;;;;;;;2.23;0.80;;;;;;;-145.69;68.02;52270.13;5095380;28;20649;-83
2023/10/27 04:09:32;;;;;;;2.33;0.50;;;;;;;-145.69;67.85;52274.06;5095473;28;20224;-84
2023/10/27 04:12:01;;;;;;;0.70;0.60;;;;;;;-145.69;67.96;52270.13;5095610;28;20205;-84
2023/10/27 04:14:28;;;;;;;1.33;0.70;;;;;;;-145.69;68.22;52289.91;5095095;28;20198;-83
2023/10/27 04:16:55;;;;;;;2.47;0.70;;;;;;;-145.69;67.87;52226.53;5095582;28;20667;-83
2023/10/27 04:19:25;;;;;;;1.70;0.67;;;;;;;-145.69;68.13;52280.00;5095156;28;20807;-84
2023/10/27 04:21:53;;;;;;;2.83;0.60;;;;;;;-145.69;67.78;52297.84;5095493;28;20233;-83
2023/10/27 04:24:20;;;;;;;1.73;0.57;;;;;;;-145.69;68.22;52285.97;5095387;28;20701;-83
2023/10/27 04:26:47;;;;;;;1.50;0.60;;;;;;;-145.69;68.01;52236.44;5095439;28;20275;-83
2023/10/27 04:29:13;;;;;;;1.53;0.70;;;;;;;-145.69;68.16;52276.06;5094711;28;20554;-84
2023/10/27 04:31:40;;;;;;;0.60;0.60;;;;;;;-145.69;67.77;52246.34;5088368;28;20221;-84
2023/10/27 04:34:08;;;;;;;0.67;0.60;;;;;;;-145.69;67.99;52289.91;5085659;28;20202;-84
2023/10/27 04:36:35;;;;;;;0.73;0.70;;;;;;;-145.69;68.18;52246.34;5095166;28;20204;-84
2023/10/27 04:39:02;;;;;;;2.03;0.70;;;;;;;-145.69;68.02;52258.22;5094804;28;20198;-84
2023/10/27 04:41:30;;;;;;;0.73;0.73;;;;;;;-145.69;68.15;52270.13;5095044;28;20619;-84
2023/10/27 04:43:57;;;;;;;0.50;0.50;;;;;;;-145.69;68.00;52224.56;5094923;28;20655;-84
2023/10/27 04:46:23;;;;;;;0.97;0.70;;;;;;;-145.69;67.75;52270.13;5095045;28;20671;-84
2023/10/27 04:48:50;;;;;;;0.80;0.60;;;;;;;-145.69;68.04;52248.34;5094694;28;20205;-83
2023/10/27 04:51:18;;;;;;;1.30;0.63;;;;;;;-145.69;67.65;52258.22;5076252;28;20206;-84
2023/10/27 04:53:47;;;;;;;0.83;0.70;;;;;;;-145.69;67.47;52234.47;5074803;28;20295;-84
2023/10/27 04:56:14;;;;;;;2.17;1.17;;;;;;;-145.69;67.74;52278.03;5074563;28;20267;-84
2023/10/27 04:58:42;;;;;;;0.90;0.80;;;;;;;-145.69;67.47;52258.22;5075544;28;20195;-83
2023/10/27 05:01:09;;;;;;;1.50;0.93;;;;;;;-145.69;67.78;52246.34;5071666;28;20233;-84
2023/10/27 05:03:36;;;;;;;1.03;0.80;;;;;;;-145.69;67.76;52240.41;5078080;28;20195;-83
2023/10/27 05:06:10;;;;;;;173.27;76.43;;;;;;;-145.69;67.28;52307.75;5074236;28;20289;-83
2023/10/27 05:08:38;;;;;;;44.73;19.90;;;;;;;-145.69;67.68;52260.22;5074261;28;20198;-84
2023/10/27 05:11:05;;;;;;;33.73;13.67;;;;;;;-145.69;68.20;52246.34;5074170;28;20306;-84
2023/10/27 05:13:31;;;;;;;514.03;166.47;;;;;;;-145.69;67.51;52252.28;5074180;28;20230;-84
2023/10/27 05:15:58;;;;;;;180.52;51.45;;;;;;;-145.69;68.18;52234.47;5074210;28;20198;-84
2023/10/27 05:18:24;;;;;;;98.27;32.50;;;;;;;-145.69;67.95;52244.38;5074122;28;20206;-84
2023/10/27 05:20:51;;;;;;;134.13;38.90;;;;;;;-145.69;67.99;52262.19;5073647;28;20588;-84
2023/10/27 05:23:18;;;;;;;46.07;13.53;;;;;;;-145.69;66.96;52242.38;5074034;28;20195;-84
2023/10/27 05:25:48;;;;;;;10.63;4.47;;;;;;;-145.69;66.85;52262.19;5074047;28;20209;-84
2023/10/27 05:28:14;;;;;;;3.10;1.20;;;;;;;-145.69;66.75;52248.34;5079818;28;20202;-84
2023/10/27 05:30:43;;;;;;;0.83;0.50;;;;;;;-145.69;66.03;52262.19;5093864;28;20198;-84
2023/10/27 05:33:12;;;;;;;1.20;0.60;;;;;;;-145.69;67.00;52248.34;5054027;28;20638;-84
2023/10/27 05:35:38;;;;;;;0.40;0.37;;;;;;;-145.69;67.30;52246.34;5053657;28;20644;-84
2023/10/27 05:38:05;;;;;;;0.73;0.50;;;;;;;-145.69;67.27;52242.38;5053633;28;20199;-84
2023/10/27 05:40:33;;;;;;;5.30;0.50;;;;;;;-145.69;66.98;52248.34;5053584;28;20724;-83
2023/10/27 05:43:01;;;;;;;0.40;0.40;;;;;;;-145.69;67.04;52246.34;5053568;28;20294;-84
2023/10/27 05:45:28;;;;;;;0.60;0.60;;;;;;;-145.69;66.68;52240.41;5053281;28;20211;-84
2023/10/27 05:47:55;;;;;;;0.50;0.50;;;;;;;-145.69;66.70;52240.41;5053650;28;20261;-84
2023/10/27 05:50:24;;;;;;;0.50;0.50;;;;;;;-145.69;66.01;52218.63;5053483;28;20747;-84
2023/10/27 05:52:54;;;;;;;0.55;0.55;;;;;;;-145.69;66.63;52236.44;5053713;28;20207;-83
2023/10/27 05:55:31;;;;;;;0.40;0.40;;;;;;;-145.69;66.95;52254.28;5054502;28;20213;-85
2023/10/27 05:57:57;;;;;;;0.70;0.40;;;;;;;-145.69;67.05;52258.22;5066406;28;20198;-83
2023/10/27 06:00:25;;;;;;;0.98;0.60;;;;;;;-145.69;66.83;52256.25;5094431;28;20225;-84
2023/10/27 06:02:53;;;;;;;2.65;0.60;;;;;;;-145.69;66.16;52236.44;5090825;28;20199;-84
2023/10/27 06:05:20;;;;;;;1.95;0.40;;;;;;;-145.69;66.09;52230.50;5075208;28;20195;-85
2023/10/27 06:07:46;;;;;;;0.40;0.40;;;;;;;-145.69;65.58;52244.38;5075800;28;20213;-83
2023/10/27 06:10:13;;;;;;;0.50;0.50;;;;;;;-145.69;65.26;52246.34;5074564;28;20237;-84
2023/10/27 06:12:40;;;;;;;0.55;0.50;;;;;;;-145.69;64.57;52256.25;5074453;28;20531;-84
2023/10/27 06:15:07;;;;;;;0.68;0.40;;;;;;;-145.69;63.74;52228.53;5075218;28;20206;-84
2023/10/27 06:17:36;;;;;;;0.95;0.45;;;;;;;-145.69;64.11;52272.09;5083178;28;20395;-84
2023/10/27 06:20:03;;;;;;;0.50;0.50;;;;;;;-145.69;63.89;52254.28;5094860;28;20661;-84
2023/10/27 06:22:30;;;;;;;1.17;0.80;;;;;;;-145.69;63.41;52252.28;5095284;28;20557;-84
2023/10/27 06:24:57;;;;;;;0.60;0.60;;;;;;;-145.69;63.85;52252.28;5094289;28;20208;-85
2023/10/27 06:27:24;;;;;;;0.63;0.50;;;;;;;-145.69;63.63;52222.59;5095155;28;20665;-83
2023/10/27 06:29:52;;;;;;;0.50;0.50;;;;;;;-145.69;63.54;52272.09;5093808;28;20209;-83
2023/10/27 06:32:23;;;;;;;0.60;0.50;;;;;;;-145.69;62.94;52214.66;5089608;28;20213;-84
2023/10/27 06:34:53;;;;;;;0.63;0.50;;;;;;;-145.69;62.61;52228.53;5093842;28;20198;-84
2023/10/27 06:37:20;;;;;;;1.43;1.10;;;;;;;-145.69;63.02;52210.72;5095082;28;20200;-84
2023/10/27 06:39:46;;;;;;;2.27;1.20;;;;;;;-145.69;63.42;52250.31;5094063;28;20210;-83
2023/10/27 06:42:19;;;;;;;1.23;1.00;;;;;;;-145.69;61.92;52256.25;5095657;28;20650;-85
2023/10/27 06:44:51;;;;;;;1.00;0.73;;;;;;;-145.69;62.64;52210.72;5093478;28;20212;-84
2023/10/27 06:47:19;;;;;;;2.30;1.10;;;;;;;-145.69;61.94;52234.47;5076069;28;20649;-85
2023/10/27 06:49:48;;;;;;;2.27;1.20;;;;;;;-145.69;62.32;52266.16;5078742;28;20198;-84
2023/10/27 06:52:16;;;;;;;3.63;1.90;;;;;;;-145.69;63.24;52244.38;5083678;28;20202;-83
2023/10/27 06:54:43;;;;;;;1.27;1.17;;;;;;;-145.69;63.44;52224.56;5094201;28;20213;-84
2023/10/27 06:57:09;;;;;;;3.00;1.77;;;;;;;-145.69;63.44;52222.59;5093503;28;20289;-84
2023/10/27 06:59:39;;;;;;;6.43;1.90;;;;;;;-145.69;62.99;52276.06;5083650;28;20588;-84
2023/10/27 07:02:07;;;;;;;4.70;1.57;;;;;;;-145.69;63.49;52242.38;5072431;28;20723;-84
2023/10/27 07:04:33;;;;;;;4.00;2.00;;;;;;;-145.69;63.81;52232.50;5073584;28;20195;-84
2023/10/27 07:07:00;;;;;;;2.00;1.10;;;;;;;-145.69;63.21;52238.44;5081938;28;20948;-84
2023/10/27 07:09:29;;;;;;;5.20;0.83;;;;;;;-145.69;62.89;52250.31;5075323;28;20297;-83
2023/10/27 07:11:57;;;;;;;2.87;1.70;;;;;;;-145.69;63.42;52242.38;5052662;28;20635;-84
2023/10/27 07:14:27;;;;;;;6.15;2.75;;;;;;;-145.69;63.03;52250.31;5052583;28;20303;-84
2023/10/27 07:16:55;;;;;;;3.43;1.60;;;;;;;-145.69;62.52;52226.53;5052342;28;20227;-84
2023/10/27 07:19:25;;;;;;;2.97;1.60;;;;;;;-145.69;62.18;52230.50;5052595;28;20230;-84
2023/10/27 07:21:53;;;;;;;7.90;2.95;;;;;;;-145.69;61.28;52212.69;5085743;28;20229;-83
2023/10/27 07:24:20;;;;;;;4.28;2.10;;;;;;;-145.69;61.44;52230.50;5094008;28;20201;-84
2023/10/27 07:26:48;;;;;;;9.17;4.03;;;;;;;-145.69;61.04;52194.88;5096662;28;20207;-84
2023/10/27 07:29:15;;;;;;;2.63;1.60;;;;;;;-145.69;61.04;52242.38;5096468;28;20205;-84
2023/10/27 07:31:42;;;;;;;3.67;1.60;;;;;;;-145.69;61.13;52236.44;5096561;28;20514;-84
2023/10/27 07:34:08;;;;;;;2.42;1.35;;;;;;;-145.69;60.82;52230.50;5096029;28;20202;-83
2023/10/27 07:36:35;;;;;;;5.13;1.73;;;;;;;-145.69;60.61;52234.47;5090475;28;20668;-84
2023/10/27 07:39:02;;;;;;;3.50;1.92;;;;;;;-145.69;60.61;52250.31;5076416;28;20210;-84
2023/10/27 07:41:29;;;;;;;3.13;2.00;;;;;;;-145.69;60.81;52222.59;5075940;28;20265;-84
2023/10/27 07:43:57;;;;;;;1.27;0.80;;;;;;;-145.69;60.72;52240.41;5075612;28;20456;-84
2023/10/27 07:46:24;;;;;;;1.38;1.00;;;;;;;-145.69;60.17;52234.47;5076387;28;20206;-84
2023/10/27 07:48:53;;;;;;;2.00;0.70;;;;;;;-145.69;59.81;52242.38;5076713;28;20203;-85
2023/10/27 07:51:28;;;;;;;3.33;1.13;;;;;;;-145.69;59.69;52198.81;5076725;28;20202;-84
2023/10/27 07:53:58;;;;;;;1.58;0.80;;;;;;;-145.69;59.49;52206.75;5075788;28;20846;-85
2023/10/27 07:56:25;;;;;;;1.48;0.90;;;;;;;-145.69;59.09;52210.72;5076230;28;20203;-83
2023/10/27 07:58:52;;;;;;;1.23;0.77;;;;;;;-145.69;59.12;52204.75;5075962;28;20565;-84
2023/10/27 08:01:21;;;;;;;3.90;1.03;;;;;;;-145.69;58.96;52232.50;5077204;28;20226;-83
2023/10/27 08:03:53;;;;;;;2.03;0.82;;;;;;;-145.69;57.50;52198.81;5093374;28;20202;-84
2023/10/27 08:06:26;;;;;;;1.45;1.00;;;;;;;-145.69;57.92;52240.41;5097292;28;20209;-84
2023/10/27 08:08:52;;;;;;;2.87;0.70;;;;;;;-145.69;57.42;52248.34;5096907;28;20538;-85
2023/10/27 08:11:19;;;;;;;3.87;0.83;;;;;;;-145.69;57.21;52250.31;5096302;28;20254;-84
2023/10/27 08:13:45;;;;;;;3.37;0.90;;;;;;;-145.69;56.72;52226.53;5096267;28;20237;-85
2023/10/27 08:16:20;;;;;;;1.25;0.65;;;;;;;-145.69;56.16;52200.81;5092758;28;20446;-84
2023/10/27 08:18:49;;;;;;;3.90;0.90;;;;;;;-145.69;55.37;52214.66;5076057;28;20212;-84
2023/10/27 08:21:18;;;;;;;1.37;0.77;;;;;;;-145.69;54.86;52226.53;5088013;28;20225;-84
2023/10/27 08:23:45;;;;;;;2.53;0.80;;;;;;;-145.69;53.56;52212.69;5077621;28;20206;-86
2023/10/27 08:26:16;;;;;;;2.30;0.70;;;;;;;-145.69;53.95;52210.72;5076964;28;20194;-83
2023/10/27 08:28:47;;;;;;;4.72;0.80;;;;;;;-145.69;55.02;52190.91;5083672;28;20196;-84
2023/10/27 08:31:16;;;;;;;4.38;0.90;;;;;;;-145.69;55.65;52202.78;5099270;28;20560;-84
2023/10/27 08:33:44;;;;;;;2.20;0.90;;;;;;;-145.69;56.04;52210.72;5098886;28;20285;-83
2023/10/27 08:36:11;;;;;;;3.75;0.70;;;;;;;-145.69;54.95;52230.50;5093711;28;20206;-83
2023/10/27 08:38:40;;;;;;;4.43;1.20;;;;;;;-145.69;54.24;52222.59;5076862;28;20210;-83
2023/10/27 08:41:07;;;;;;;1.45;0.80;;;;;;;-145.69;53.90;52220.59;5077302;28;20803;-84
2023/10/27 08:43:35;;;;;;;3.17;1.02;;;;;;;-145.69;53.26;52212.69;5075933;28;20245;-83
2023/10/27 08:46:04;;;;;;;4.75;0.95;;;;;;;-145.69;51.80;52250.31;5076643;28;20260;-84
2023/10/27 08:48:31;;;;;;;1.38;0.90;;;;;;;-145.69;51.67;52177.03;5076834;28;20248;-83
2023/10/27 08:51:04;;;;;;;5.90;0.75;;;;;;;-145.69;51.67;52214.66;5076534;28;20199;-84
2023/10/27 08:53:31;;;;;;;5.90;1.00;;;;;;;-145.69;50.90;52192.88;5079049;28;20712;-83
2023/10/27 08:55:59;;;;;;;3.33;0.70;;;;;;;-145.69;49.68;52169.13;5082051;28;20201;-83
2023/10/27 08:58:25;;;;;;;4.63;0.73;;;;;;;-145.69;49.78;52173.09;5091992;28;20682;-84
2023/10/27 09:00:55;;;;;;;1.40;0.60;;;;;;;-145.69;49.74;52190.91;5076910;28;20194;-84
2023/10/27 09:03:21;;;;;;;2.78;1.02;;;;;;;-145.69;50.06;52190.91;5075245;28;20553;-84
2023/10/27 09:05:50;;;;;;;2.90;0.65;;;;;;;-145.69;49.08;52190.91;5074376;28;20672;-83
2023/10/27 09:08:18;;;;;;;3.40;0.47;;;;;;;-145.69;49.43;52216.66;5056210;28;20209;-82
2023/10/27 09:10:47;;;;;;;1.45;0.70;;;;;;;-145.69;49.89;52175.06;5055591;28;20206;-84
2023/10/27 09:13:20;;;;;;;2.83;0.77;;;;;;;-145.69;50.83;52234.47;5055541;28;20286;-84
2023/10/27 09:15:48;;;;;;;3.95;0.70;;;;;;;-145.69;50.49;52171.09;5055044;28;20203;-83
2023/10/27 09:18:34;;;;;;;2.05;0.88;;;;;;;-145.69;51.80;52186.94;5055810;28;20558;-83
2023/10/27 09:21:01;;;;;;;2.10;1.00;;;;;;;-145.69;52.31;52186.94;5081656;28;20252;-83
2023/10/27 09:23:44;;;;;;;4.15;1.10;;;;;;;-145.69;51.27;52204.75;5094794;28;20675;-82
2023/10/27 09:26:11;;;;;;;4.47;0.95;;;;;;;-145.69;51.61;52210.72;5094548;28;20604;-84
2023/10/27 09:28:37;;;;;;;2.03;0.70;;;;;;;-145.69;51.91;52214.66;5093799;28;20276;-84
2023/10/27 09:31:06;;;;;;;1.95;0.65;;;;;;;-145.69;51.60;52234.47;5096287;28;20202;-83
2023/10/27 09:33:36;;;;;;;3.15;0.80;;;;;;;-145.69;51.25;52186.94;5094099;28;20209;-83
2023/10/27 09:36:06;;;;;;;6.47;1.08;;;;;;;-145.69;51.23;52206.75;5094151;28;20694;-85
2023/10/27 09:38:34;;;;;;;5.18;1.05;;;;;;;-145.69;50.67;52186.94;5094368;28;20606;-84
2023/10/27 09:41:08;;;;;;;2.25;0.85;;;;;;;-145.69;49.05;52175.06;5094406;28;20199;-84
2023/10/27 09:43:41;;;;;;;5.28;0.80;;;;;;;-145.69;48.90;52214.66;5094883;28;20312;-84
2023/10/27 09:46:11;;;;;;;1.98;0.70;;;;;;;-145.69;49.15;52155.25;5095472;28;20221;-84
2023/10/27 09:48:43;;;;;;;2.05;0.73;;;;;;;-145.69;48.89;52155.25;5095926;28;20225;-84
2023/10/27 09:51:13;;;;;;;4.13;0.80;;;;;;;-145.69;48.03;52177.03;5079315;28;20646;-84
2023/10/27 09:53:48;;;;;;;5.00;0.98;;;;;;;-145.69;47.68;52163.19;5074255;28;20321;-84
2023/10/27 09:56:19;;;;;;;2.75;0.63;;;;;;;-145.69;47.46;52159.22;5072460;28;20640;-84
2023/10/27 09:58:49;;;;;;;5.18;0.85;;;;;;;-145.69;46.92;52161.19;5093447;28;20230;-82
2023/10/27 10:01:16;;;;;;;6.85;1.13;;;;;;;-145.69;47.00;52153.28;5077696;28;20317;-83
2023/10/27 10:03:43;;;;;;;1.30;1.00;;;;;;;-145.69;46.84;52159.22;5076256;28;20207;-82
2023/10/27 10:06:15;;;;;;;4.85;1.63;;;;;;;-145.69;45.75;52143.38;5096523;28;20202;-83
2023/10/27 10:09:08;;;;;;;4.22;1.33;;;;;;;-145.69;44.97;52163.19;5077651;28;20206;-84
2023/10/27 10:11:56;;;;;;;1.83;0.80;;;;;;;-145.69;45.42;52202.78;5074213;28;20199;-84
2023/10/27 10:14:49;;;;;;;5.22;1.60;;;;;;;-145.69;45.86;52165.16;5075395;28;20198;-82
2023/10/27 10:17:37;;;;;;;3.85;1.00;;;;;;;-145.69;45.62;52157.25;5074863;28;20206;-83
2023/10/27 10:20:05;;;;;;;3.40;0.60;;;;;;;-145.69;44.99;52147.34;5076993;28;20194;-83
2023/10/27 10:22:54;;;;;;;2.55;0.70;;;;;;;-145.69;45.43;52155.25;5095305;28;20233;-83
2023/10/27 10:25:31;;;;;;;4.75;0.88;;;;;;;-145.69;44.73;52135.47;5055159;28;20559;-83
2023/10/27 10:28:27;;;;;;;1.02;0.50;;;;;;;-145.69;43.76;52139.41;5053242;28;20268;-83
2023/10/27 10:31:33;;;;;;;4.28;0.93;;;;;;;-145.69;44.42;52139.41;5053039;28;20203;-83
2023/10/27 10:34:12;;;;;;;4.45;0.98;;;;;;;-145.69;43.05;52165.16;5055864;28;20293;-84
2023/10/27 10:36:42;;;;;;;2.60;0.80;;;;;;;-145.69;43.48;52135.47;5093246;28;20236;-84
2023/10/27 10:39:11;;;;;;;5.53;0.80;;;;;;;-145.69;44.27;52151.28;5093594;28;20263;-83
2023/10/27 10:42:03;;;;;;;2.63;0.70;;;;;;;-145.69;44.16;52133.47;5092781;28;20221;-83
2023/10/27 10:44:33;;;;;;;3.58;0.68;;;;;;;-145.69;43.00;52099.81;5078975;28;20206;-84
2023/10/27 10:47:16;;;;;;;1.27;0.70;;;;;;;-145.69;42.66;52117.63;5052804;28;20195;-82
2023/10/27 10:49:44;;;;;;;2.17;0.60;;;;;;;-145.69;42.12;52127.53;5053289;28;20222;-83
2023/10/27 10:52:10;;;;;;;1.77;0.60;;;;;;;-145.69;42.62;52125.56;5072953;28;20195;-83
2023/10/27 10:54:38;;;;;;;3.15;1.00;;;;;;;-145.69;42.67;52099.81;5072923;28;20238;-83
2023/10/27 10:57:09;;;;;;;3.83;0.80;;;;;;;-145.69;42.84;52099.81;5072568;28;20610;-83
2023/10/27 10:59:36;;;;;;;4.35;0.60;;;;;;;-145.69;43.26;52115.66;5075546;28;20228;-83
2023/10/27 11:02:05;;;;;;;2.22;0.90;;;;;;;-145.69;42.21;52145.34;5076611;28;20284;-84
2023/10/27 11:04:36;;;;;;;2.45;0.60;;;;;;;-145.69;41.88;52131.50;5078220;28;20198;-84
2023/10/27 11:07:04;;;;;;;4.10;1.45;;;;;;;-145.69;42.54;52113.66;5077181;28;20285;-84
2023/10/27 11:09:32;;;;;;;3.92;0.70;;;;;;;-145.69;42.23;52135.47;5097204;28;20240;-85
2023/10/27 11:12:00;;;;;;;4.25;0.93;;;;;;;-145.69;42.89;52125.56;5088360;28;20205;-86
2023/10/27 11:14:28;;;;;;;1.63;0.63;;;;;;;-145.69;41.91;52131.50;5076274;28;20202;-85
2023/10/27 11:16:59;;;;;;;3.00;0.70;;;;;;;-145.69;42.75;52127.53;5072389;28;20658;-84
2023/10/27 11:19:25;;;;;;;2.70;0.70;;;;;;;-145.69;42.95;52123.56;5076693;28;20554;-84
2023/10/27 11:21:53;;;;;;;1.42;0.50;;;;;;;-145.69;43.25;52123.56;5091178;28;20222;-84
2023/10/27 11:24:20;;;;;;;3.60;1.10;;;;;;;-145.69;44.20;52139.41;5076403;28;20198;-84